Darstellungsparameter: Aktuell verwendete Einstellungen:
Skalierung der Graphiken ... ?
xyx+y,   Skalierungsfaktor:      Skalierung: Modus: x, Faktor: 1
Darstellungszeitraum ... ?
Vom - - bis: - -   Zeitraum: 29.03.2020 - 04.04.2020
Min/Max/Avg-Anzeige ... ?
Zeige MMA aktuell
Zeige MMA Monat
Zeige MMA alles
Zeige --A aktuell
Zeige --A Monat
Zeige --A alles
Keine MMA-Anzeige
MMA:
Average (ber die Originaldaten)
MMA-Basis: 29.03.2020 - 04.04.2020
Quicknavigation für Darstellung... ?
Tage:      1T, 2T, 3T, 5T -1T -2T -3T -5T +1T +2T +3T +5T
Wochen: 1W, 2W, 3W -1W -2W -3W +1W +2W +3W
Monate: 1M, 3M, 6M -1M -3M -6M +1M +3M +6M
Jahre:    1J, 3J, 5J, 10J -1J -3J -5J -10J +1J +3J +5J +10J
Nutze für die Darstellung ... ?
Originaldaten oder ...
Mittelwerte Minima Maxima auf...
Stundenbasis Tagesbasis Wochenbasis
Monatsbasis Jahresbasis      Datenbasis: Mittelwerte auf Stundenbasis
Darstellen als:
Statistik (Auto) Statistik J:M      Darstellung:
Zur Graphik,    zurück zur Übersicht aller Sensoren.
 
Tabellarische Datenbersicht: ?
 
Sensor: Nr:Datum:Temp:Abs-Feuchte:Windchill:Wind:
Aussen-T/F 1 29-03-2020 00:00:00 7.14167 C 5.77 g/m*3 5.31 C 9.54167 km/h
2 29-03-2020 01:00:00 6.59167 C 5.44 g/m*3 3.97 C 13.3 km/h
3 29-03-2020 02:00:00 5.74167 C 5.03 g/m*3 2.87 C 13.7 km/h
4 29-03-2020 04:00:00 4.88333 C 4.71 g/m*3 2.47 C 10.20833 km/h
5 29-03-2020 05:00:00 4.575 C 4.68 g/m*3 1.48 C 13.43333 km/h
6 29-03-2020 06:00:00 3.8 C 4.5 g/m*3 2.48 C 5.63333 km/h
7 29-03-2020 07:00:00 4.04167 C 4.89 g/m*3 1.75 C 9 km/h
8 29-03-2020 08:00:00 4.36667 C 4.97 g/m*3 1.5 C 11.95833 km/h
9 29-03-2020 09:00:00 4.64167 C 4.95 g/m*3 1.32 C 14.9 km/h
10 29-03-2020 10:00:00 5.64167 C 4.94 g/m*3 2.09 C 18.23333 km/h
11 29-03-2020 11:00:00 6.44167 C 4.56 g/m*3 2.7 C 21.71667 km/h
12 29-03-2020 12:00:00 6.04167 C 4.7 g/m*3 2.43 C 19.56667 km/h
13 29-03-2020 13:00:00 6.68333 C 4.36 g/m*3 3.38 C 18.36667 km/h
14 29-03-2020 14:00:00 6.9 C 4.38 g/m*3 3.73 C 17.7 km/h
15 29-03-2020 15:00:00 7.1 C 4.48 g/m*3 4 C 17.56667 km/h
16 29-03-2020 16:00:00 6.90833 C 4.4 g/m*3 3.83 C 17.03333 km/h
17 29-03-2020 17:00:00 6.89167 C 4.74 g/m*3 3.61 C 18.63333 km/h
18 29-03-2020 18:00:00 6.06667 C 5.08 g/m*3 2.37 C 20.375 km/h
19 29-03-2020 19:00:00 4.35 C 5.43 g/m*3 0.68 C 16.75833 km/h
20 29-03-2020 20:00:00 3.88333 C 5.43 g/m*3 3.88 C 4.675 km/h
21 29-03-2020 21:00:00 4.34167 C 5.06 g/m*3 1.79 C 10.35833 km/h
22 29-03-2020 22:00:00 4.26667 C 4.77 g/m*3 0.72 C 15.83333 km/h
23 29-03-2020 23:00:00 4.025 C 4.39 g/m*3 0.54 C 15.03333 km/h
24 30-03-2020 00:00:00 2.95 C 4.06 g/m*3 1.03 C 6.98333 km/h
25 30-03-2020 01:00:00 1.29167 C 3.91 g/m*3 1.29 C 3.46667 km/h
Sensor: Nr:Datum:Temp:Abs-Feuchte:Windchill:Wind:
Aussen-T/F 26 30-03-2020 02:00:00 -0.3 C 3.74 g/m*3 -0.3 C 1.33333 km/h
27 30-03-2020 03:00:00 -1.20833 C 3.63 g/m*3 -1.21 C 2.4 km/h
28 30-03-2020 04:00:00 -1.74167 C 3.57 g/m*3 -1.74 C 1.46667 km/h
29 30-03-2020 05:00:00 -2.05 C 3.43 g/m*3 -2.05 C 1.33333 km/h
30 30-03-2020 06:00:00 -2.9 C 3.3 g/m*3 -2.9 C 0.93333 km/h
31 30-03-2020 07:00:00 -3.05 C 3.28 g/m*3 -3.05 C 0.8 km/h
32 30-03-2020 08:00:00 -3.225 C 3.28 g/m*3 -3.23 C 0.4 km/h
33 30-03-2020 09:00:00 -2.225 C 3.36 g/m*3 -2.23 C 1.33333 km/h
34 30-03-2020 10:00:00 -0.64167 C 3.46 g/m*3 -0.64 C 4.15 km/h
35 30-03-2020 11:00:00 2.7 C 2.96 g/m*3 0.66 C 7.25 km/h
36 30-03-2020 12:00:00 4.41667 C 2.58 g/m*3 2.66 C 7.25 km/h
37 30-03-2020 13:00:00 5.98333 C 2.66 g/m*3 4.11 C 8.73333 km/h
38 30-03-2020 14:00:00 7.20833 C 2.68 g/m*3 5.18 C 10.60833 km/h
39 30-03-2020 15:00:00 8.075 C 3.04 g/m*3 5.84 C 12.9 km/h
40 30-03-2020 16:00:00 9.05833 C 3.41 g/m*3 7.06 C 12.76667 km/h
41 30-03-2020 17:00:00 9.51667 C 3.76 g/m*3 7.23 C 15.7 km/h
42 30-03-2020 18:00:00 8.54167 C 4.11 g/m*3 6.41 C 12.9 km/h
43 30-03-2020 19:00:00 7.58333 C 4.25 g/m*3 6.32 C 7.39167 km/h
44 30-03-2020 20:00:00 4.33333 C 4.3 g/m*3 4.33 C 2.26667 km/h
45 30-03-2020 21:00:00 3.80833 C 4.62 g/m*3 3.81 C 3.6 km/h
46 30-03-2020 22:00:00 4.1 C 4.71 g/m*3 4.1 C 0.93333 km/h
47 30-03-2020 23:00:00 4.375 C 4.72 g/m*3 4.38 C 1.46667 km/h
48 31-03-2020 00:00:00 4.48333 C 4.78 g/m*3 4.48 C 1.46667 km/h
49 31-03-2020 01:00:00 4.60833 C 5.19 g/m*3 4.61 C 2.13333 km/h
50 31-03-2020 02:00:00 4.13333 C 5.33 g/m*3 4.13 C 1.33333 km/h
Sensor: Nr:Datum:Temp:Abs-Feuchte:Windchill:Wind:
Aussen-T/F 51 31-03-2020 03:00:00 3.14167 C 5.23 g/m*3 3.14 C 1.06667 km/h
52 31-03-2020 04:00:00 3.35 C 5.47 g/m*3 3.35 C 0.26667 km/h
53 31-03-2020 05:00:00 3.275 C 5.38 g/m*3 3.28 C 0.66667 km/h
54 31-03-2020 06:00:00 2.16667 C 5.09 g/m*3 2.17 C 0.53333 km/h
55 31-03-2020 07:00:00 2.65833 C 5.34 g/m*3 2.66 C 0 km/h
56 31-03-2020 08:00:00 3.45833 C 5.51 g/m*3 3.46 C 2.55 km/h
57 31-03-2020 09:00:00 4.51667 C 5.06 g/m*3 2.7 C 7.51667 km/h
58 31-03-2020 10:00:00 4.85 C 4.84 g/m*3 2.67 C 9.14167 km/h
59 31-03-2020 11:00:00 5.25 C 4.59 g/m*3 2.69 C 11.29167 km/h
60 31-03-2020 12:00:00 6.64167 C 4.26 g/m*3 4.42 C 11.01667 km/h
61 31-03-2020 13:00:00 7.34167 C 3.8 g/m*3 5.1 C 11.96667 km/h
62 31-03-2020 14:00:00 8.60833 C 3.71 g/m*3 6.32 C 14.1 km/h
63 31-03-2020 15:00:00 9.04167 C 3.57 g/m*3 6.98 C 13.15833 km/h
64 31-03-2020 16:00:00 9.81667 C 3.53 g/m*3 7.65 C 15.3 km/h
65 31-03-2020 17:00:00 10.84167 C 3.53 g/m*3 9.54 C 10.61667 km/h
66 31-03-2020 18:00:00 10.775 C 3.53 g/m*3 9.68 C 9.25833 km/h
67 31-03-2020 19:00:00 9.675 C 3.67 g/m*3 9.68 C 4.96667 km/h
68 31-03-2020 20:00:00 5.45 C 4.04 g/m*3 5.45 C 4.13333 km/h
69 31-03-2020 21:00:00 3.39167 C 3.95 g/m*3 3.39 C 3.86667 km/h
70 31-03-2020 22:00:00 2.40833 C 3.9 g/m*3 2.41 C 4.53333 km/h
71 31-03-2020 23:00:00 1.425 C 3.88 g/m*3 1.43 C 4 km/h
72 01-04-2020 00:00:00 0.59167 C 3.79 g/m*3 0.59 C 2.93333 km/h
73 01-04-2020 01:00:00 -0.14167 C 3.74 g/m*3 -0.14 C 0.93333 km/h
74 01-04-2020 02:00:00 -1.025 C 3.61 g/m*3 -1.02 C 0 km/h
75 01-04-2020 03:00:00 -1.64167 C 3.49 g/m*3 -1.64 C 0 km/h
Sensor: Nr:Datum:Temp:Abs-Feuchte:Windchill:Wind:
Aussen-T/F 76 01-04-2020 04:00:00 -2.175 C 3.37 g/m*3 -2.17 C 0 km/h
77 01-04-2020 05:00:00 -2.66667 C 3.32 g/m*3 -2.67 C 0 km/h
78 01-04-2020 06:00:00 -3.05 C 3.3 g/m*3 -3.05 C 0 km/h
79 01-04-2020 07:00:00 -3.325 C 3.28 g/m*3 -3.33 C 0 km/h
80 01-04-2020 08:00:00 -2.94167 C 3.4 g/m*3 -2.94 C 0 km/h
81 01-04-2020 09:00:00 -2.1 C 3.54 g/m*3 -2.1 C 0.26667 km/h
82 01-04-2020 10:00:00 -0.075 C 3.97 g/m*3 -0.08 C 0.13333 km/h
83 01-04-2020 11:00:00 3.90833 C 4.05 g/m*3 3.91 C 1.2 km/h
84 01-04-2020 12:00:00 7.29167 C 3.62 g/m*3 6.43 C 5.75 km/h
85 01-04-2020 13:00:00 8.80833 C 3.59 g/m*3 7.88 C 6.83333 km/h
86 01-04-2020 14:00:00 9.89167 C 3.54 g/m*3 8.84 C 8.19167 km/h
87 01-04-2020 15:00:00 10.65833 C 3.25 g/m*3 10.03 C 6.84167 km/h
88 01-04-2020 16:00:00 11.7 C 3.37 g/m*3 11.7 C 5.9 km/h
89 01-04-2020 17:00:00 13.075 C 3.67 g/m*3 13.08 C 6.70833 km/h
90 01-04-2020 18:00:00 12.9 C 3.68 g/m*3 12.9 C 6.16667 km/h
91 01-04-2020 19:00:00 11.90833 C 3.66 g/m*3 11.91 C 5.88333 km/h
92 01-04-2020 20:00:00 8.54167 C 3.83 g/m*3 8.08 C 5.075 km/h
93 01-04-2020 21:00:00 5.31667 C 4.09 g/m*3 5.32 C 4.93333 km/h
94 01-04-2020 22:00:00 3.75 C 4.08 g/m*3 3.75 C 2.66667 km/h
95 01-04-2020 23:00:00 2.44167 C 4.08 g/m*3 2.44 C 0.93333 km/h
96 02-04-2020 00:00:00 1.21667 C 3.94 g/m*3 1.22 C 1.2 km/h
97 02-04-2020 01:00:00 0.4 C 3.91 g/m*3 0.4 C 0 km/h
98 02-04-2020 02:00:00 -0.18333 C 3.86 g/m*3 -0.18 C 0 km/h
99 02-04-2020 03:00:00 -0.58333 C 3.82 g/m*3 -0.58 C 0.13333 km/h
100 02-04-2020 04:00:00 -0.825 C 3.79 g/m*3 -0.83 C 0.26667 km/h
Sensor: Nr:Datum:Temp:Abs-Feuchte:Windchill:Wind:
Aussen-T/F 101 02-04-2020 05:00:00 -1.56667 C 3.69 g/m*3 -1.57 C 0 km/h
102 02-04-2020 06:00:00 -1.725 C 3.7 g/m*3 -1.73 C 0 km/h
103 02-04-2020 07:00:00 -1.9 C 3.69 g/m*3 -1.9 C 0.4 km/h
104 02-04-2020 08:00:00 -1.35833 C 3.85 g/m*3 -1.36 C 0.13333 km/h
105 02-04-2020 09:00:00 -0.64167 C 4.03 g/m*3 -0.64 C 0.13333 km/h
106 02-04-2020 10:00:00 1.39167 C 4.55 g/m*3 1.39 C 0 km/h
107 02-04-2020 11:00:00 5.44167 C 4.94 g/m*3 5.44 C 1.46667 km/h
108 02-04-2020 12:00:00 8.83333 C 4.88 g/m*3 8.83 C 4.14167 km/h
109 02-04-2020 13:00:00 10.78333 C 4.51 g/m*3 9.87 C 8.31667 km/h
110 02-04-2020 14:00:00 12.31667 C 4.66 g/m*3 12.32 C 8.60833 km/h
111 02-04-2020 15:00:00 13.25833 C 4.71 g/m*3 13.26 C 9.29167 km/h
112 02-04-2020 16:00:00 13.56667 C 4.95 g/m*3 13.57 C 10.875 km/h
113 02-04-2020 17:00:00 13.58333 C 5.31 g/m*3 13.58 C 13.3 km/h
114 02-04-2020 18:00:00 12.2 C 5.45 g/m*3 12.2 C 13.03333 km/h
115 02-04-2020 19:00:00 10.68333 C 5.09 g/m*3 9.75 C 8.31667 km/h
116 02-04-2020 20:00:00 8.79167 C 5.03 g/m*3 8 C 6.30833 km/h
117 02-04-2020 21:00:00 6.64167 C 5.06 g/m*3 6.64 C 4 km/h
118 02-04-2020 22:00:00 5.86667 C 5.09 g/m*3 5.87 C 3.73333 km/h
119 02-04-2020 23:00:00 5.25833 C 5.14 g/m*3 5.26 C 3.73333 km/h
120 03-04-2020 00:00:00 3.475 C 4.93 g/m*3 3.48 C 1.86667 km/h
121 03-04-2020 01:00:00 3.025 C 4.89 g/m*3 1.64 C 5.50833 km/h
122 03-04-2020 02:00:00 3.1 C 4.95 g/m*3 3.1 C 2.93333 km/h
123 03-04-2020 03:00:00 4.2 C 5.23 g/m*3 4.2 C 3.475 km/h
124 03-04-2020 04:00:00 5.28333 C 5.37 g/m*3 5.28 C 2.95 km/h
125 03-04-2020 05:00:00 5.30833 C 5.46 g/m*3 5.31 C 2.26667 km/h
Sensor: Nr:Datum:Temp:Abs-Feuchte:Windchill:Wind:
Aussen-T/F 126 03-04-2020 06:00:00 5.68333 C 5.56 g/m*3 5.68 C 4.275 km/h
127 03-04-2020 07:00:00 6.05833 C 5.61 g/m*3 4.54 C 7.38333 km/h
128 03-04-2020 08:00:00 6.39167 C 5.74 g/m*3 4.36 C 9.83333 km/h
129 03-04-2020 09:00:00 7.6 C 6.09 g/m*3 6.21 C 7.925 km/h
130 03-04-2020 10:00:00 9.06667 C 6.5 g/m*3 7.67 C 9.15833 km/h
131 03-04-2020 11:00:00 10.85 C 6.61 g/m*3 9.47 C 11.15833 km/h
132 03-04-2020 12:00:00 11.35 C 6.29 g/m*3 11.35 C 11.83333 km/h
133 03-04-2020 13:00:00 11.575 C 6.2 g/m*3 11.58 C 11.43333 km/h
134 03-04-2020 14:00:00 11.66667 C 6.02 g/m*3 11.67 C 10.625 km/h
135 03-04-2020 15:00:00 11.75 C 5.88 g/m*3 11.75 C 11.03333 km/h
136 03-04-2020 16:00:00 12.25 C 5.44 g/m*3 12.25 C 12.76667 km/h
137 03-04-2020 17:00:00 12.13333 C 5.29 g/m*3 12.13 C 12.63333 km/h
138 03-04-2020 18:00:00 11.51667 C 5.4 g/m*3 11.52 C 11.56667 km/h
139 03-04-2020 19:00:00 10.73333 C 5.45 g/m*3 9.56 C 9.69167 km/h
140 03-04-2020 20:00:00 9.88333 C 5.23 g/m*3 9.13 C 6.83333 km/h
141 03-04-2020 21:00:00 9.225 C 4.95 g/m*3 9.23 C 4.81667 km/h
142 03-04-2020 22:00:00 7.96667 C 5.03 g/m*3 7.97 C 4 km/h
143 03-04-2020 23:00:00 6.8 C 4.88 g/m*3 6.8 C 2.66667 km/h
144 04-04-2020 00:00:00 5.65 C 4.76 g/m*3 5.65 C 2.93333 km/h
145 04-04-2020 01:00:00 4.69167 C 4.73 g/m*3 4.69 C 3.2 km/h
146 04-04-2020 02:00:00 2.50833 C 4.59 g/m*3 2.51 C 0.13333 km/h
147 04-04-2020 03:00:00 1.41667 C 4.51 g/m*3 1.42 C 0.8 km/h
148 04-04-2020 04:00:00 0.46667 C 4.34 g/m*3 0.47 C 0.13333 km/h
149 04-04-2020 05:00:00 -0.05 C 4.28 g/m*3 -0.05 C 0.26667 km/h
150 04-04-2020 06:00:00 -0.41667 C 4.21 g/m*3 -0.42 C 0.8 km/h
Sensor: Nr:Datum:Temp:Abs-Feuchte:Windchill:Wind:
Aussen-T/F 151 04-04-2020 07:00:00 -0.76667 C 4.15 g/m*3 -0.77 C 0.13333 km/h
152 04-04-2020 08:00:00 -0.50833 C 4.29 g/m*3 -0.51 C 0.13333 km/h
153 04-04-2020 09:00:00 0.55833 C 4.59 g/m*3 0.56 C 0.8 km/h
154 04-04-2020 10:00:00 2.78333 C 5.18 g/m*3 2.78 C 0 km/h
155 04-04-2020 11:00:00 6.91667 C 5.66 g/m*3 6.92 C 2.54167 km/h
156 04-04-2020 12:00:00 9.94167 C 5.38 g/m*3 9.16 C 6.98333 km/h
157 04-04-2020 13:00:00 11.425 C 5.34 g/m*3 11.43 C 10.35833 km/h
158 04-04-2020 14:00:00 12.76667 C 5.27 g/m*3 12.77 C 13.43333 km/h
159 04-04-2020 15:00:00 13.55833 C 5.32 g/m*3 13.56 C 12.35833 km/h
160 04-04-2020 16:00:00 14.85833 C 5.41 g/m*3 14.86 C 10.49167 km/h
161 04-04-2020 17:00:00 15.90833 C 5.65 g/m*3 15.91 C 9.29167 km/h
162 04-04-2020 18:00:00 16.275 C 5.97 g/m*3 16.27 C 9.54167 km/h
163 04-04-2020 19:00:00 15.125 C 6.19 g/m*3 15.13 C 4.81667 km/h
164 04-04-2020 20:00:00 10.55833 C 5.94 g/m*3 10.11 C 6 km/h
165 04-04-2020 21:00:00 8.21667 C 5.54 g/m*3 8.22 C 4.675 km/h
166 04-04-2020 22:00:00 6.325 C 5.38 g/m*3 6.33 C 0.26667 km/h
167 04-04-2020 23:00:00 4.74167 C 5.09 g/m*3 4.74 C 0 km/h

Maximal/Minimal-Werte vom 29.03.2020 - 04.04.2020

Sensor Min Max Avg
Temp
(Aussen-T/F)
-3.4 °C
30-03-2020  07:55:00
16.5 °C
04-04-2020  18:05:00
5.37 °C
Abs-Feuchte
(Aussen-T/F)
2.58 g/m*3
30-03-2020  12:00:00
6.61 g/m*3
03-04-2020  11:00:00
4.5 g/m*3
Windchill
(Aussen-T/F)
-3.33 C
01-04-2020  07:00:00
16.27 C
04-04-2020  18:00:00
4.59 C

Die Daten stammen von einer Davis Vantage Pro 2 Wetter-Station und werden unter Linux mit der Software wview2wettercgi und aufbereitet. Alle Angaben erfolgen ohne Gewähr für ihre Vollständigkeit oder Richtigkeit.
Kontakt: Rainer Krienke krienke@uni-koblenz.de . Meine Webseiten an der Uni Koblenz oder privat.
Version: $Revision: 0.78 $